sensor_id;sensor_type;location;lat;lon;timestamp;P1;durP1;ratioP1;P2;durP2;ratioP2
11396;SDS011;5754;43.726;7.416;2023-03-23T00:01:16;6.00;;;4.00;;
11396;SDS011;5754;43.726;7.416;2023-03-23T00:03:58;7.27;;;3.90;;
11396;SDS011;5754;43.726;7.416;2023-03-23T00:06:32;8.77;;;4.07;;
11396;SDS011;5754;43.726;7.416;2023-03-23T00:09:07;6.03;;;3.73;;
11396;SDS011;5754;43.726;7.416;2023-03-23T00:11:42;6.40;;;3.60;;
11396;SDS011;5754;43.726;7.416;2023-03-23T00:16:58;7.23;;;4.03;;
11396;SDS011;5754;43.726;7.416;2023-03-23T00:19:33;6.67;;;4.00;;
11396;SDS011;5754;43.726;7.416;2023-03-23T00:22:18;5.93;;;4.03;;
11396;SDS011;5754;43.726;7.416;2023-03-23T00:24:54;8.80;;;4.00;;
11396;SDS011;5754;43.726;7.416;2023-03-23T00:27:29;7.80;;;4.60;;
11396;SDS011;5754;43.726;7.416;2023-03-23T00:30:03;8.87;;;4.83;;
11396;SDS011;5754;43.726;7.416;2023-03-23T00:32:39;6.53;;;4.47;;
11396;SDS011;5754;43.726;7.416;2023-03-23T00:35:13;6.33;;;4.40;;
11396;SDS011;5754;43.726;7.416;2023-03-23T00:37:48;6.53;;;4.80;;
11396;SDS011;5754;43.726;7.416;2023-03-23T00:40:23;4.97;;;4.43;;
11396;SDS011;5754;43.726;7.416;2023-03-23T00:42:57;7.37;;;4.70;;
11396;SDS011;5754;43.726;7.416;2023-03-23T00:45:32;5.50;;;4.50;;
11396;SDS011;5754;43.726;7.416;2023-03-23T00:48:07;8.33;;;4.20;;
11396;SDS011;5754;43.726;7.416;2023-03-23T00:50:42;5.97;;;4.20;;
11396;SDS011;5754;43.726;7.416;2023-03-23T00:53:17;8.73;;;4.83;;
11396;SDS011;5754;43.726;7.416;2023-03-23T00:55:52;8.30;;;4.80;;
11396;SDS011;5754;43.726;7.416;2023-03-23T00:58:26;8.80;;;4.67;;
11396;SDS011;5754;43.726;7.416;2023-03-23T01:01:01;10.73;;;5.07;;
11396;SDS011;5754;43.726;7.416;2023-03-23T01:03:35;5.90;;;4.70;;
11396;SDS011;5754;43.726;7.416;2023-03-23T01:06:11;7.10;;;4.83;;
11396;SDS011;5754;43.726;7.416;2023-03-23T01:08:49;7.13;;;4.80;;
11396;SDS011;5754;43.726;7.416;2023-03-23T01:11:23;6.47;;;5.10;;
11396;SDS011;5754;43.726;7.416;2023-03-23T01:13:58;7.33;;;5.40;;
11396;SDS011;5754;43.726;7.416;2023-03-23T01:16:33;7.37;;;5.00;;
11396;SDS011;5754;43.726;7.416;2023-03-23T01:19:07;8.20;;;5.60;;
11396;SDS011;5754;43.726;7.416;2023-03-23T01:21:41;8.53;;;5.50;;
11396;SDS011;5754;43.726;7.416;2023-03-23T01:24:15;7.37;;;5.70;;
11396;SDS011;5754;43.726;7.416;2023-03-23T01:26:50;7.13;;;5.20;;
11396;SDS011;5754;43.726;7.416;2023-03-23T01:29:24;7.90;;;5.43;;
11396;SDS011;5754;43.726;7.416;2023-03-23T01:31:58;10.03;;;6.93;;
11396;SDS011;5754;43.726;7.416;2023-03-23T01:34:33;9.07;;;5.93;;
11396;SDS011;5754;43.726;7.416;2023-03-23T01:37:08;6.20;;;5.60;;
11396;SDS011;5754;43.726;7.416;2023-03-23T01:39:44;6.60;;;5.60;;
11396;SDS011;5754;43.726;7.416;2023-03-23T01:42:21;7.73;;;6.03;;
11396;SDS011;5754;43.726;7.416;2023-03-23T01:47:51;7.40;;;5.57;;
11396;SDS011;5754;43.726;7.416;2023-03-23T01:50:26;7.63;;;5.60;;
11396;SDS011;5754;43.726;7.416;2023-03-23T01:53:02;5.77;;;5.27;;
11396;SDS011;5754;43.726;7.416;2023-03-23T01:55:43;7.20;;;6.10;;
11396;SDS011;5754;43.726;7.416;2023-03-23T01:58:25;8.40;;;5.60;;
11396;SDS011;5754;43.726;7.416;2023-03-23T02:01:03;6.83;;;5.63;;
11396;SDS011;5754;43.726;7.416;2023-03-23T02:03:39;6.90;;;5.47;;
11396;SDS011;5754;43.726;7.416;2023-03-23T02:06:17;9.83;;;4.87;;
11396;SDS011;5754;43.726;7.416;2023-03-23T02:09:15;6.83;;;4.83;;
11396;SDS011;5754;43.726;7.416;2023-03-23T02:11:53;6.13;;;4.70;;
11396;SDS011;5754;43.726;7.416;2023-03-23T02:14:28;6.90;;;5.30;;
11396;SDS011;5754;43.726;7.416;2023-03-23T02:17:09;6.80;;;5.50;;
11396;SDS011;5754;43.726;7.416;2023-03-23T02:36:28;10.03;;;4.63;;
11396;SDS011;5754;43.726;7.416;2023-03-23T02:39:10;7.53;;;4.63;;
11396;SDS011;5754;43.726;7.416;2023-03-23T02:41:47;6.03;;;5.43;;
11396;SDS011;5754;43.726;7.416;2023-03-23T02:44:23;5.90;;;5.27;;
11396;SDS011;5754;43.726;7.416;2023-03-23T02:47:04;6.63;;;5.77;;
11396;SDS011;5754;43.726;7.416;2023-03-23T02:49:40;7.67;;;5.97;;
11396;SDS011;5754;43.726;7.416;2023-03-23T02:52:21;7.77;;;5.13;;
11396;SDS011;5754;43.726;7.416;2023-03-23T02:54:56;5.50;;;4.97;;
11396;SDS011;5754;43.726;7.416;2023-03-23T02:57:33;6.33;;;4.60;;
11396;SDS011;5754;43.726;7.416;2023-03-23T03:00:10;6.90;;;4.43;;
11396;SDS011;5754;43.726;7.416;2023-03-23T03:02:47;6.53;;;3.67;;
11396;SDS011;5754;43.726;7.416;2023-03-23T03:05:27;5.00;;;3.90;;
11396;SDS011;5754;43.726;7.416;2023-03-23T03:08:07;4.97;;;3.97;;
11396;SDS011;5754;43.726;7.416;2023-03-23T03:10:49;8.47;;;3.87;;
11396;SDS011;5754;43.726;7.416;2023-03-23T03:13:29;7.70;;;4.47;;
11396;SDS011;5754;43.726;7.416;2023-03-23T03:20:31;7.33;;;4.53;;
11396;SDS011;5754;43.726;7.416;2023-03-23T03:23:07;6.43;;;4.13;;
11396;SDS011;5754;43.726;7.416;2023-03-23T03:25:43;6.67;;;3.77;;
11396;SDS011;5754;43.726;7.416;2023-03-23T03:28:22;5.70;;;3.90;;
11396;SDS011;5754;43.726;7.416;2023-03-23T03:30:58;6.80;;;3.90;;
11396;SDS011;5754;43.726;7.416;2023-03-23T03:33:34;6.50;;;4.47;;
11396;SDS011;5754;43.726;7.416;2023-03-23T03:36:08;6.57;;;4.20;;
11396;SDS011;5754;43.726;7.416;2023-03-23T03:38:49;5.63;;;4.47;;
11396;SDS011;5754;43.726;7.416;2023-03-23T03:41:26;7.53;;;5.00;;
11396;SDS011;5754;43.726;7.416;2023-03-23T03:43:59;5.27;;;4.57;;
11396;SDS011;5754;43.726;7.416;2023-03-23T03:46:34;4.63;;;4.20;;
11396;SDS011;5754;43.726;7.416;2023-03-23T03:49:10;7.00;;;4.43;;
11396;SDS011;5754;43.726;7.416;2023-03-23T03:51:45;6.60;;;4.40;;
11396;SDS011;5754;43.726;7.416;2023-03-23T03:54:26;6.53;;;4.50;;
11396;SDS011;5754;43.726;7.416;2023-03-23T03:57:00;6.20;;;4.20;;
11396;SDS011;5754;43.726;7.416;2023-03-23T03:59:55;6.33;;;4.33;;
11396;SDS011;5754;43.726;7.416;2023-03-23T04:02:48;6.97;;;4.60;;
11396;SDS011;5754;43.726;7.416;2023-03-23T04:05:35;6.47;;;4.90;;
11396;SDS011;5754;43.726;7.416;2023-03-23T04:08:10;7.23;;;4.70;;
11396;SDS011;5754;43.726;7.416;2023-03-23T04:10:44;5.07;;;4.30;;
11396;SDS011;5754;43.726;7.416;2023-03-23T04:13:19;5.67;;;4.13;;
11396;SDS011;5754;43.726;7.416;2023-03-23T04:16:21;5.97;;;4.43;;
11396;SDS011;5754;43.726;7.416;2023-03-23T04:18:55;5.37;;;4.50;;
11396;SDS011;5754;43.726;7.416;2023-03-23T04:21:31;6.70;;;4.37;;
11396;SDS011;5754;43.726;7.416;2023-03-23T04:24:06;5.87;;;3.77;;
11396;SDS011;5754;43.726;7.416;2023-03-23T04:26:41;9.23;;;3.87;;
11396;SDS011;5754;43.726;7.416;2023-03-23T04:29:25;4.27;;;3.50;;
11396;SDS011;5754;43.726;7.416;2023-03-23T04:32:36;5.57;;;3.73;;
11396;SDS011;5754;43.726;7.416;2023-03-23T04:35:14;5.13;;;3.40;;
11396;SDS011;5754;43.726;7.416;2023-03-23T04:37:53;4.00;;;3.60;;
11396;SDS011;5754;43.726;7.416;2023-03-23T04:43:06;5.37;;;3.50;;
11396;SDS011;5754;43.726;7.416;2023-03-23T04:45:54;4.43;;;3.50;;
11396;SDS011;5754;43.726;7.416;2023-03-23T04:48:34;5.70;;;3.60;;
11396;SDS011;5754;43.726;7.416;2023-03-23T04:51:25;8.43;;;3.90;;
11396;SDS011;5754;43.726;7.416;2023-03-23T04:54:00;5.57;;;4.10;;
11396;SDS011;5754;43.726;7.416;2023-03-23T04:56:35;5.00;;;3.90;;
11396;SDS011;5754;43.726;7.416;2023-03-23T04:59:14;7.83;;;3.80;;
11396;SDS011;5754;43.726;7.416;2023-03-23T05:02:10;4.87;;;3.93;;
11396;SDS011;5754;43.726;7.416;2023-03-23T05:04:47;5.37;;;4.00;;
11396;SDS011;5754;43.726;7.416;2023-03-23T05:07:24;6.07;;;3.70;;
11396;SDS011;5754;43.726;7.416;2023-03-23T05:10:01;6.00;;;4.07;;
11396;SDS011;5754;43.726;7.416;2023-03-23T05:12:36;9.20;;;4.77;;
11396;SDS011;5754;43.726;7.416;2023-03-23T05:15:12;5.77;;;4.13;;
11396;SDS011;5754;43.726;7.416;2023-03-23T05:17:47;5.50;;;4.30;;
11396;SDS011;5754;43.726;7.416;2023-03-23T05:20:25;6.23;;;4.20;;
11396;SDS011;5754;43.726;7.416;2023-03-23T05:23:05;6.70;;;4.37;;
11396;SDS011;5754;43.726;7.416;2023-03-23T05:25:41;5.53;;;3.67;;
11396;SDS011;5754;43.726;7.416;2023-03-23T05:28:21;5.27;;;3.60;;
11396;SDS011;5754;43.726;7.416;2023-03-23T05:31:04;7.23;;;4.00;;
11396;SDS011;5754;43.726;7.416;2023-03-23T05:33:39;4.47;;;3.63;;
11396;SDS011;5754;43.726;7.416;2023-03-23T05:36:31;9.13;;;4.30;;
11396;SDS011;5754;43.726;7.416;2023-03-23T05:39:15;8.07;;;4.37;;
11396;SDS011;5754;43.726;7.416;2023-03-23T05:42:09;5.93;;;3.73;;
11396;SDS011;5754;43.726;7.416;2023-03-23T05:44:56;4.40;;;3.60;;
11396;SDS011;5754;43.726;7.416;2023-03-23T05:47:31;4.93;;;3.80;;
11396;SDS011;5754;43.726;7.416;2023-03-23T05:50:11;6.97;;;3.97;;
11396;SDS011;5754;43.726;7.416;2023-03-23T05:52:49;9.23;;;4.30;;
11396;SDS011;5754;43.726;7.416;2023-03-23T05:55:25;8.47;;;3.80;;
11396;SDS011;5754;43.726;7.416;2023-03-23T05:58:07;3.97;;;3.57;;
11396;SDS011;5754;43.726;7.416;2023-03-23T06:00:43;7.33;;;3.70;;
11396;SDS011;5754;43.726;7.416;2023-03-23T06:03:27;6.43;;;3.73;;
11396;SDS011;5754;43.726;7.416;2023-03-23T06:06:34;5.30;;;3.63;;
11396;SDS011;5754;43.726;7.416;2023-03-23T06:09:15;8.73;;;4.03;;
11396;SDS011;5754;43.726;7.416;2023-03-23T06:15:21;5.07;;;3.10;;
11396;SDS011;5754;43.726;7.416;2023-03-23T06:19:30;5.30;;;3.37;;
11396;SDS011;5754;43.726;7.416;2023-03-23T06:22:11;5.90;;;3.67;;
11396;SDS011;5754;43.726;7.416;2023-03-23T06:25:09;4.60;;;3.47;;
11396;SDS011;5754;43.726;7.416;2023-03-23T06:27:47;5.77;;;3.80;;
11396;SDS011;5754;43.726;7.416;2023-03-23T06:30:21;5.77;;;3.57;;
11396;SDS011;5754;43.726;7.416;2023-03-23T06:32:56;6.63;;;3.50;;
11396;SDS011;5754;43.726;7.416;2023-03-23T06:35:58;4.83;;;3.30;;
11396;SDS011;5754;43.726;7.416;2023-03-23T06:38:48;8.97;;;3.50;;
11396;SDS011;5754;43.726;7.416;2023-03-23T06:41:29;4.57;;;3.40;;
11396;SDS011;5754;43.726;7.416;2023-03-23T06:44:03;5.40;;;3.30;;
11396;SDS011;5754;43.726;7.416;2023-03-23T06:46:39;4.53;;;3.43;;
11396;SDS011;5754;43.726;7.416;2023-03-23T06:49:30;6.60;;;3.33;;
11396;SDS011;5754;43.726;7.416;2023-03-23T06:52:20;7.57;;;3.90;;
11396;SDS011;5754;43.726;7.416;2023-03-23T06:54:56;4.00;;;3.10;;
11396;SDS011;5754;43.726;7.416;2023-03-23T06:57:30;7.60;;;3.67;;
11396;SDS011;5754;43.726;7.416;2023-03-23T07:00:05;4.87;;;3.30;;
11396;SDS011;5754;43.726;7.416;2023-03-23T07:02:41;5.13;;;3.53;;
11396;SDS011;5754;43.726;7.416;2023-03-23T07:05:16;5.30;;;2.90;;
11396;SDS011;5754;43.726;7.416;2023-03-23T07:07:50;5.10;;;3.10;;
11396;SDS011;5754;43.726;7.416;2023-03-23T07:10:35;6.53;;;2.97;;
11396;SDS011;5754;43.726;7.416;2023-03-23T07:13:10;5.20;;;3.40;;
11396;SDS011;5754;43.726;7.416;2023-03-23T07:15:51;5.10;;;2.70;;
11396;SDS011;5754;43.726;7.416;2023-03-23T07:18:25;5.20;;;2.70;;
11396;SDS011;5754;43.726;7.416;2023-03-23T07:21:01;8.23;;;3.43;;
11396;SDS011;5754;43.726;7.416;2023-03-23T07:23:37;5.47;;;3.40;;
11396;SDS011;5754;43.726;7.416;2023-03-23T07:26:15;4.73;;;3.77;;
11396;SDS011;5754;43.726;7.416;2023-03-23T07:28:55;7.17;;;3.23;;
11396;SDS011;5754;43.726;7.416;2023-03-23T07:31:34;6.33;;;3.97;;
11396;SDS011;5754;43.726;7.416;2023-03-23T07:34:09;6.60;;;3.30;;
11396;SDS011;5754;43.726;7.416;2023-03-23T07:37:10;5.83;;;3.23;;
11396;SDS011;5754;43.726;7.416;2023-03-23T07:39:47;3.30;;;2.60;;
11396;SDS011;5754;43.726;7.416;2023-03-23T07:42:21;10.07;;;3.20;;
11396;SDS011;5754;43.726;7.416;2023-03-23T07:45:02;5.43;;;3.00;;
11396;SDS011;5754;43.726;7.416;2023-03-23T07:47:37;5.13;;;3.13;;
11396;SDS011;5754;43.726;7.416;2023-03-23T07:50:12;4.40;;;3.00;;
11396;SDS011;5754;43.726;7.416;2023-03-23T07:52:49;5.90;;;2.57;;
11396;SDS011;5754;43.726;7.416;2023-03-23T07:55:25;4.73;;;2.67;;
11396;SDS011;5754;43.726;7.416;2023-03-23T07:59:22;5.67;;;2.73;;
11396;SDS011;5754;43.726;7.416;2023-03-23T08:01:56;5.47;;;3.13;;
11396;SDS011;5754;43.726;7.416;2023-03-23T08:07:08;6.77;;;2.83;;
11396;SDS011;5754;43.726;7.416;2023-03-23T08:11:06;4.80;;;3.23;;
11396;SDS011;5754;43.726;7.416;2023-03-23T08:13:55;3.97;;;2.90;;
11396;SDS011;5754;43.726;7.416;2023-03-23T08:16:46;3.13;;;2.50;;
11396;SDS011;5754;43.726;7.416;2023-03-23T08:19:51;3.57;;;2.73;;
11396;SDS011;5754;43.726;7.416;2023-03-23T08:23:46;4.30;;;2.70;;
11396;SDS011;5754;43.726;7.416;2023-03-23T08:26:39;3.87;;;2.90;;
11396;SDS011;5754;43.726;7.416;2023-03-23T08:29:32;5.97;;;3.10;;
11396;SDS011;5754;43.726;7.416;2023-03-23T08:32:26;5.40;;;2.90;;
11396;SDS011;5754;43.726;7.416;2023-03-23T08:35:13;3.57;;;2.70;;
11396;SDS011;5754;43.726;7.416;2023-03-23T08:41:21;4.47;;;2.97;;
11396;SDS011;5754;43.726;7.416;2023-03-23T08:44:10;5.13;;;3.07;;
11396;SDS011;5754;43.726;7.416;2023-03-23T08:47:03;8.27;;;2.43;;
11396;SDS011;5754;43.726;7.416;2023-03-23T08:49:51;5.20;;;3.10;;
11396;SDS011;5754;43.726;7.416;2023-03-23T08:52:45;4.57;;;3.00;;
11396;SDS011;5754;43.726;7.416;2023-03-23T08:57:57;7.87;;;2.60;;
11396;SDS011;5754;43.726;7.416;2023-03-23T09:02:02;5.07;;;2.50;;
11396;SDS011;5754;43.726;7.416;2023-03-23T09:04:54;3.60;;;2.30;;
11396;SDS011;5754;43.726;7.416;2023-03-23T09:08:07;4.63;;;2.77;;
11396;SDS011;5754;43.726;7.416;2023-03-23T09:10:41;4.67;;;3.07;;
11396;SDS011;5754;43.726;7.416;2023-03-23T09:13:15;5.60;;;3.10;;
11396;SDS011;5754;43.726;7.416;2023-03-23T09:15:50;7.47;;;3.57;;
11396;SDS011;5754;43.726;7.416;2023-03-23T09:18:25;4.97;;;2.93;;
11396;SDS011;5754;43.726;7.416;2023-03-23T09:20:59;5.07;;;2.80;;
11396;SDS011;5754;43.726;7.416;2023-03-23T09:23:34;3.83;;;2.77;;
11396;SDS011;5754;43.726;7.416;2023-03-23T09:26:10;4.23;;;2.77;;
11396;SDS011;5754;43.726;7.416;2023-03-23T09:28:44;4.50;;;2.87;;
11396;SDS011;5754;43.726;7.416;2023-03-23T09:31:19;3.87;;;2.47;;
11396;SDS011;5754;43.726;7.416;2023-03-23T09:33:53;5.60;;;2.93;;
11396;SDS011;5754;43.726;7.416;2023-03-23T09:36:29;4.57;;;3.03;;
11396;SDS011;5754;43.726;7.416;2023-03-23T09:39:05;5.13;;;3.30;;
11396;SDS011;5754;43.726;7.416;2023-03-23T09:42:03;5.67;;;3.40;;
11396;SDS011;5754;43.726;7.416;2023-03-23T09:44:51;6.03;;;3.10;;
11396;SDS011;5754;43.726;7.416;2023-03-23T09:51:41;5.13;;;3.57;;
11396;SDS011;5754;43.726;7.416;2023-03-23T09:58:09;6.27;;;3.50;;
11396;SDS011;5754;43.726;7.416;2023-03-23T10:00:52;3.90;;;2.90;;
11396;SDS011;5754;43.726;7.416;2023-03-23T10:03:48;5.03;;;3.10;;
11396;SDS011;5754;43.726;7.416;2023-03-23T10:06:25;4.03;;;2.80;;
11396;SDS011;5754;43.726;7.416;2023-03-23T10:09:00;5.37;;;3.03;;
11396;SDS011;5754;43.726;7.416;2023-03-23T10:15:43;5.93;;;3.13;;
11396;SDS011;5754;43.726;7.416;2023-03-23T10:18:24;5.07;;;3.33;;
11396;SDS011;5754;43.726;7.416;2023-03-23T10:21:00;6.60;;;3.63;;
11396;SDS011;5754;43.726;7.416;2023-03-23T10:26:49;9.60;;;3.67;;
11396;SDS011;5754;43.726;7.416;2023-03-23T10:29:39;8.47;;;4.20;;
11396;SDS011;5754;43.726;7.416;2023-03-23T10:32:17;6.77;;;3.60;;
11396;SDS011;5754;43.726;7.416;2023-03-23T10:35:00;7.23;;;3.87;;
11396;SDS011;5754;43.726;7.416;2023-03-23T10:37:40;6.27;;;3.80;;
11396;SDS011;5754;43.726;7.416;2023-03-23T10:40:19;5.90;;;3.50;;
11396;SDS011;5754;43.726;7.416;2023-03-23T10:42:53;5.27;;;4.17;;
11396;SDS011;5754;43.726;7.416;2023-03-23T10:45:29;5.67;;;4.03;;
11396;SDS011;5754;43.726;7.416;2023-03-23T10:48:28;6.90;;;4.00;;
11396;SDS011;5754;43.726;7.416;2023-03-23T10:51:06;7.73;;;4.13;;
11396;SDS011;5754;43.726;7.416;2023-03-23T10:53:44;4.90;;;3.60;;
11396;SDS011;5754;43.726;7.416;2023-03-23T10:59:11;7.53;;;3.40;;
11396;SDS011;5754;43.726;7.416;2023-03-23T11:01:47;3.73;;;3.43;;
11396;SDS011;5754;43.726;7.416;2023-03-23T11:04:22;6.33;;;3.80;;
11396;SDS011;5754;43.726;7.416;2023-03-23T11:07:00;4.37;;;3.57;;
11396;SDS011;5754;43.726;7.416;2023-03-23T11:09:37;5.27;;;3.43;;
11396;SDS011;5754;43.726;7.416;2023-03-23T11:12:18;5.90;;;3.70;;
11396;SDS011;5754;43.726;7.416;2023-03-23T11:15:02;5.47;;;3.67;;
11396;SDS011;5754;43.726;7.416;2023-03-23T11:17:39;3.80;;;3.40;;
11396;SDS011;5754;43.726;7.416;2023-03-23T11:20:18;4.50;;;3.70;;
11396;SDS011;5754;43.726;7.416;2023-03-23T11:22:55;8.57;;;3.87;;
11396;SDS011;5754;43.726;7.416;2023-03-23T11:25:29;8.63;;;3.77;;
11396;SDS011;5754;43.726;7.416;2023-03-23T11:28:04;5.60;;;3.63;;
11396;SDS011;5754;43.726;7.416;2023-03-23T11:30:38;4.67;;;3.30;;
11396;SDS011;5754;43.726;7.416;2023-03-23T11:33:13;4.40;;;3.13;;
11396;SDS011;5754;43.726;7.416;2023-03-23T11:35:49;4.73;;;3.30;;
11396;SDS011;5754;43.726;7.416;2023-03-23T11:38:23;6.60;;;3.57;;
11396;SDS011;5754;43.726;7.416;2023-03-23T11:41:01;3.33;;;3.03;;
11396;SDS011;5754;43.726;7.416;2023-03-23T11:43:38;4.73;;;3.43;;
11396;SDS011;5754;43.726;7.416;2023-03-23T11:46:16;4.70;;;3.73;;
11396;SDS011;5754;43.726;7.416;2023-03-23T11:51:56;3.90;;;3.27;;
11396;SDS011;5754;43.726;7.416;2023-03-23T11:54:37;4.27;;;3.20;;
11396;SDS011;5754;43.726;7.416;2023-03-23T11:57:14;3.97;;;3.40;;
11396;SDS011;5754;43.726;7.416;2023-03-23T11:59:49;3.90;;;3.37;;
11396;SDS011;5754;43.726;7.416;2023-03-23T12:06:04;5.67;;;3.93;;
11396;SDS011;5754;43.726;7.416;2023-03-23T12:08:59;5.00;;;3.40;;
11396;SDS011;5754;43.726;7.416;2023-03-23T12:14:51;4.13;;;3.23;;
11396;SDS011;5754;43.726;7.416;2023-03-23T12:21:49;9.43;;;3.80;;
11396;SDS011;5754;43.726;7.416;2023-03-23T12:26:20;3.63;;;3.23;;
11396;SDS011;5754;43.726;7.416;2023-03-23T12:38:25;4.47;;;3.00;;
11396;SDS011;5754;43.726;7.416;2023-03-23T12:41:18;5.90;;;3.47;;
11396;SDS011;5754;43.726;7.416;2023-03-23T12:43:59;4.37;;;3.40;;
11396;SDS011;5754;43.726;7.416;2023-03-23T12:49:38;5.27;;;3.23;;
11396;SDS011;5754;43.726;7.416;2023-03-23T12:52:21;3.93;;;2.90;;
11396;SDS011;5754;43.726;7.416;2023-03-23T12:55:17;8.00;;;3.73;;
11396;SDS011;5754;43.726;7.416;2023-03-23T12:57:54;3.33;;;2.93;;
11396;SDS011;5754;43.726;7.416;2023-03-23T13:04:39;4.17;;;3.77;;
11396;SDS011;5754;43.726;7.416;2023-03-23T13:07:17;4.83;;;3.73;;
11396;SDS011;5754;43.726;7.416;2023-03-23T13:10:04;6.93;;;4.33;;
11396;SDS011;5754;43.726;7.416;2023-03-23T13:12:42;4.20;;;3.80;;
11396;SDS011;5754;43.726;7.416;2023-03-23T13:15:24;5.70;;;4.00;;
11396;SDS011;5754;43.726;7.416;2023-03-23T13:18:07;4.03;;;3.60;;
11396;SDS011;5754;43.726;7.416;2023-03-23T13:20:51;4.47;;;4.07;;
11396;SDS011;5754;43.726;7.416;2023-03-23T13:26:48;6.00;;;4.50;;
11396;SDS011;5754;43.726;7.416;2023-03-23T13:29:23;7.70;;;4.60;;
11396;SDS011;5754;43.726;7.416;2023-03-23T13:32:11;6.30;;;4.07;;
11396;SDS011;5754;43.726;7.416;2023-03-23T13:34:47;6.80;;;3.87;;
11396;SDS011;5754;43.726;7.416;2023-03-23T13:37:23;7.10;;;4.17;;
11396;SDS011;5754;43.726;7.416;2023-03-23T13:42:49;5.57;;;3.93;;
11396;SDS011;5754;43.726;7.416;2023-03-23T13:45:44;6.20;;;3.67;;
11396;SDS011;5754;43.726;7.416;2023-03-23T13:48:21;4.57;;;4.07;;
11396;SDS011;5754;43.726;7.416;2023-03-23T13:50:57;5.23;;;4.27;;
11396;SDS011;5754;43.726;7.416;2023-03-23T13:53:46;12.13;;;5.00;;
11396;SDS011;5754;43.726;7.416;2023-03-23T13:56:50;6.30;;;4.57;;
11396;SDS011;5754;43.726;7.416;2023-03-23T13:59:31;7.27;;;4.80;;
11396;SDS011;5754;43.726;7.416;2023-03-23T14:06:03;7.37;;;4.17;;
11396;SDS011;5754;43.726;7.416;2023-03-23T14:08:42;5.60;;;4.33;;
11396;SDS011;5754;43.726;7.416;2023-03-23T14:11:27;8.67;;;4.77;;
11396;SDS011;5754;43.726;7.416;2023-03-23T14:14:06;7.13;;;4.40;;
11396;SDS011;5754;43.726;7.416;2023-03-23T14:16:41;6.77;;;4.40;;
11396;SDS011;5754;43.726;7.416;2023-03-23T14:19:24;5.63;;;4.20;;
11396;SDS011;5754;43.726;7.416;2023-03-23T14:22:00;6.03;;;4.47;;
11396;SDS011;5754;43.726;7.416;2023-03-23T14:24:39;5.40;;;4.00;;
11396;SDS011;5754;43.726;7.416;2023-03-23T14:27:15;4.73;;;3.90;;
11396;SDS011;5754;43.726;7.416;2023-03-23T14:29:59;5.40;;;4.20;;
11396;SDS011;5754;43.726;7.416;2023-03-23T14:32:34;5.47;;;3.73;;
11396;SDS011;5754;43.726;7.416;2023-03-23T14:35:12;5.87;;;3.80;;
11396;SDS011;5754;43.726;7.416;2023-03-23T14:37:47;7.47;;;4.80;;
11396;SDS011;5754;43.726;7.416;2023-03-23T14:40:21;7.23;;;4.73;;
11396;SDS011;5754;43.726;7.416;2023-03-23T14:42:56;5.07;;;3.67;;
11396;SDS011;5754;43.726;7.416;2023-03-23T14:45:30;5.67;;;4.60;;
11396;SDS011;5754;43.726;7.416;2023-03-23T14:48:08;9.80;;;4.80;;
11396;SDS011;5754;43.726;7.416;2023-03-23T14:50:49;6.47;;;4.73;;
11396;SDS011;5754;43.726;7.416;2023-03-23T14:53:45;5.47;;;4.37;;
11396;SDS011;5754;43.726;7.416;2023-03-23T14:56:32;9.03;;;4.50;;
11396;SDS011;5754;43.726;7.416;2023-03-23T14:59:09;5.97;;;4.13;;
11396;SDS011;5754;43.726;7.416;2023-03-23T15:01:44;6.47;;;4.80;;
11396;SDS011;5754;43.726;7.416;2023-03-23T15:04:20;7.87;;;4.70;;
11396;SDS011;5754;43.726;7.416;2023-03-23T15:06:58;5.37;;;4.20;;
11396;SDS011;5754;43.726;7.416;2023-03-23T15:09:33;5.93;;;4.53;;
11396;SDS011;5754;43.726;7.416;2023-03-23T15:12:11;13.20;;;6.73;;
11396;SDS011;5754;43.726;7.416;2023-03-23T15:14:50;10.00;;;8.30;;
11396;SDS011;5754;43.726;7.416;2023-03-23T15:17:26;7.83;;;5.30;;
11396;SDS011;5754;43.726;7.416;2023-03-23T15:22:53;6.43;;;4.20;;
11396;SDS011;5754;43.726;7.416;2023-03-23T15:25:31;5.43;;;4.37;;
11396;SDS011;5754;43.726;7.416;2023-03-23T15:28:16;5.53;;;4.23;;
11396;SDS011;5754;43.726;7.416;2023-03-23T15:30:51;5.97;;;5.20;;
11396;SDS011;5754;43.726;7.416;2023-03-23T15:33:32;5.97;;;4.53;;
11396;SDS011;5754;43.726;7.416;2023-03-23T15:36:08;4.53;;;4.13;;
11396;SDS011;5754;43.726;7.416;2023-03-23T15:38:44;6.83;;;4.37;;
11396;SDS011;5754;43.726;7.416;2023-03-23T15:41:23;7.17;;;4.30;;
11396;SDS011;5754;43.726;7.416;2023-03-23T15:43:58;5.17;;;4.10;;
11396;SDS011;5754;43.726;7.416;2023-03-23T15:46:49;6.53;;;4.50;;
11396;SDS011;5754;43.726;7.416;2023-03-23T15:49:23;4.37;;;3.93;;
11396;SDS011;5754;43.726;7.416;2023-03-23T15:51:58;4.57;;;3.60;;
11396;SDS011;5754;43.726;7.416;2023-03-23T15:54:32;8.10;;;4.57;;
11396;SDS011;5754;43.726;7.416;2023-03-23T15:57:07;7.57;;;4.20;;
11396;SDS011;5754;43.726;7.416;2023-03-23T15:59:43;3.87;;;3.37;;
11396;SDS011;5754;43.726;7.416;2023-03-23T16:02:21;4.40;;;3.27;;
11396;SDS011;5754;43.726;7.416;2023-03-23T16:04:57;6.13;;;3.50;;
11396;SDS011;5754;43.726;7.416;2023-03-23T16:07:31;4.03;;;3.30;;
11396;SDS011;5754;43.726;7.416;2023-03-23T16:10:10;4.27;;;3.27;;
11396;SDS011;5754;43.726;7.416;2023-03-23T16:12:48;6.53;;;3.00;;
11396;SDS011;5754;43.726;7.416;2023-03-23T16:15:23;2.67;;;2.43;;
11396;SDS011;5754;43.726;7.416;2023-03-23T16:17:58;9.10;;;2.97;;
11396;SDS011;5754;43.726;7.416;2023-03-23T16:20:33;3.47;;;2.40;;
11396;SDS011;5754;43.726;7.416;2023-03-23T16:23:09;4.00;;;2.40;;
11396;SDS011;5754;43.726;7.416;2023-03-23T16:25:43;4.33;;;2.40;;
11396;SDS011;5754;43.726;7.416;2023-03-23T16:28:18;3.40;;;1.97;;
11396;SDS011;5754;43.726;7.416;2023-03-23T16:30:53;6.30;;;3.40;;
11396;SDS011;5754;43.726;7.416;2023-03-23T16:33:29;3.27;;;2.30;;
11396;SDS011;5754;43.726;7.416;2023-03-23T16:36:04;5.57;;;2.40;;
11396;SDS011;5754;43.726;7.416;2023-03-23T16:38:39;2.57;;;2.23;;
11396;SDS011;5754;43.726;7.416;2023-03-23T16:41:14;4.03;;;1.90;;
11396;SDS011;5754;43.726;7.416;2023-03-23T16:43:49;3.90;;;1.60;;
11396;SDS011;5754;43.726;7.416;2023-03-23T16:46:24;8.63;;;2.30;;
11396;SDS011;5754;43.726;7.416;2023-03-23T16:48:58;3.03;;;1.93;;
11396;SDS011;5754;43.726;7.416;2023-03-23T16:51:34;3.20;;;1.60;;
11396;SDS011;5754;43.726;7.416;2023-03-23T16:54:08;3.97;;;1.80;;
11396;SDS011;5754;43.726;7.416;2023-03-23T16:56:43;3.33;;;1.70;;
11396;SDS011;5754;43.726;7.416;2023-03-23T16:59:19;3.90;;;1.60;;
11396;SDS011;5754;43.726;7.416;2023-03-23T17:01:53;3.33;;;1.80;;
11396;SDS011;5754;43.726;7.416;2023-03-23T17:04:33;7.63;;;1.90;;
11396;SDS011;5754;43.726;7.416;2023-03-23T17:07:10;5.37;;;1.80;;
11396;SDS011;5754;43.726;7.416;2023-03-23T17:09:44;4.33;;;3.43;;
11396;SDS011;5754;43.726;7.416;2023-03-23T17:12:19;7.03;;;4.30;;
11396;SDS011;5754;43.726;7.416;2023-03-23T17:14:53;4.40;;;2.47;;
11396;SDS011;5754;43.726;7.416;2023-03-23T17:17:28;2.87;;;2.20;;
11396;SDS011;5754;43.726;7.416;2023-03-23T17:20:03;2.57;;;1.73;;
11396;SDS011;5754;43.726;7.416;2023-03-23T17:22:38;3.90;;;1.83;;
11396;SDS011;5754;43.726;7.416;2023-03-23T17:25:13;4.27;;;2.10;;
11396;SDS011;5754;43.726;7.416;2023-03-23T17:27:47;6.33;;;2.13;;
11396;SDS011;5754;43.726;7.416;2023-03-23T17:30:22;4.10;;;2.40;;
11396;SDS011;5754;43.726;7.416;2023-03-23T17:32:56;3.97;;;1.80;;
11396;SDS011;5754;43.726;7.416;2023-03-23T17:35:31;3.50;;;2.00;;
11396;SDS011;5754;43.726;7.416;2023-03-23T17:38:05;3.43;;;1.73;;
11396;SDS011;5754;43.726;7.416;2023-03-23T17:40:40;4.37;;;1.80;;
11396;SDS011;5754;43.726;7.416;2023-03-23T17:43:14;4.53;;;1.80;;
11396;SDS011;5754;43.726;7.416;2023-03-23T17:45:49;2.87;;;1.50;;
11396;SDS011;5754;43.726;7.416;2023-03-23T17:48:24;5.03;;;1.77;;
11396;SDS011;5754;43.726;7.416;2023-03-23T17:50:59;4.60;;;1.83;;
11396;SDS011;5754;43.726;7.416;2023-03-23T17:53:35;4.93;;;1.77;;
11396;SDS011;5754;43.726;7.416;2023-03-23T17:56:09;5.23;;;1.70;;
11396;SDS011;5754;43.726;7.416;2023-03-23T17:58:44;5.73;;;1.73;;
11396;SDS011;5754;43.726;7.416;2023-03-23T18:01:18;4.10;;;2.03;;
11396;SDS011;5754;43.726;7.416;2023-03-23T18:03:54;5.10;;;1.87;;